createdAt,value
2023-02-22T00:01:53.350Z,11.48
2023-02-22T00:04:21.639Z,11.13
2023-02-22T00:06:50.818Z,11.90
2023-02-22T00:09:20.616Z,12.07
2023-02-22T00:11:49.483Z,14.43
2023-02-22T00:14:20.361Z,15.30
2023-02-22T00:16:50.575Z,14.63
2023-02-22T00:19:19.063Z,15.05
2023-02-22T00:21:47.456Z,16.10
2023-02-22T00:24:23.846Z,19.90
2023-02-22T00:26:55.498Z,16.42
2023-02-22T00:29:25.300Z,22.10
2023-02-22T00:31:54.129Z,23.20
2023-02-22T00:34:24.144Z,36.63
2023-02-22T00:36:52.482Z,29.67
2023-02-22T00:39:20.823Z,24.63
2023-02-22T00:41:49.812Z,24.20
2023-02-22T00:44:19.527Z,24.90
2023-02-22T00:46:47.819Z,20.40
2023-02-22T00:49:16.134Z,23.90
2023-02-22T00:51:44.530Z,20.38
2023-02-22T00:54:14.407Z,21.35
2023-02-22T00:56:42.715Z,22.38
2023-02-22T00:59:11.051Z,31.02
2023-02-22T01:01:43.121Z,29.83
2023-02-22T01:04:11.622Z,41.97
2023-02-22T01:06:40.060Z,37.42
2023-02-22T01:09:08.721Z,31.27
2023-02-22T01:11:37.050Z,28.88
2023-02-22T01:14:09.694Z,27.67
2023-02-22T01:16:38.095Z,25.02
2023-02-22T01:19:07.765Z,23.48
2023-02-22T01:21:36.338Z,21.85
2023-02-22T01:24:04.645Z,20.33
2023-02-22T01:26:32.993Z,19.25
2023-02-22T01:29:01.290Z,21.08
2023-02-22T01:31:29.651Z,17.65
2023-02-22T01:33:58.049Z,17.80
2023-02-22T01:36:27.940Z,16.50
2023-02-22T01:38:56.197Z,17.05
2023-02-22T01:41:24.490Z,22.73
2023-02-22T01:43:52.760Z,22.00
2023-02-22T01:46:23.053Z,21.98
2023-02-22T01:48:52.644Z,24.48
2023-02-22T01:51:22.762Z,21.30
2023-02-22T01:53:54.322Z,25.33
2023-02-22T01:56:23.721Z,23.70
2023-02-22T01:58:54.198Z,25.15
2023-02-22T02:01:24.058Z,23.60
2023-02-22T02:03:53.769Z,20.02
2023-02-22T02:06:22.982Z,21.92
2023-02-22T02:08:56.807Z,18.10
2023-02-22T02:13:55.700Z,18.17
2023-02-22T02:16:24.315Z,15.88
2023-02-22T02:18:55.062Z,15.38
2023-02-22T02:21:41.389Z,13.68
2023-02-22T02:24:39.583Z,16.00
2023-02-22T02:27:12.879Z,13.70
2023-02-22T02:30:02.001Z,12.48
2023-02-22T02:32:35.512Z,12.30
2023-02-22T02:35:06.502Z,13.30
2023-02-22T02:37:37.054Z,9.73
2023-02-22T02:40:12.649Z,13.20
2023-02-22T02:42:44.879Z,12.52
2023-02-22T02:45:15.603Z,14.10
2023-02-22T02:47:47.606Z,13.15
2023-02-22T02:50:17.850Z,17.02
2023-02-22T02:52:47.208Z,23.10
2023-02-22T02:55:18.207Z,21.02
2023-02-22T02:57:46.477Z,21.50
2023-02-22T03:00:22.514Z,16.58
2023-02-22T03:02:59.974Z,23.13
2023-02-22T03:05:37.325Z,21.02
2023-02-22T03:08:09.963Z,17.58
2023-02-22T03:10:47.596Z,21.67
2023-02-22T03:13:18.319Z,19.95
2023-02-22T03:15:52.400Z,21.67
2023-02-22T03:18:29.043Z,18.73
2023-02-22T03:21:01.639Z,15.52
2023-02-22T03:23:34.767Z,13.30
2023-02-22T03:26:05.008Z,12.57
2023-02-22T03:28:34.511Z,14.50
2023-02-22T03:31:04.438Z,12.88
2023-02-22T03:33:36.355Z,11.82
2023-02-22T03:36:07.538Z,13.63
2023-02-22T03:38:38.385Z,14.88
2023-02-22T03:41:08.311Z,14.60
2023-02-22T03:43:38.633Z,14.70
2023-02-22T03:46:08.302Z,13.25
2023-02-22T03:48:41.737Z,13.77
2023-02-22T03:51:10.039Z,15.52
2023-02-22T03:53:38.822Z,14.90
2023-02-22T03:56:10.437Z,12.73
2023-02-22T03:58:39.406Z,14.27
2023-02-22T04:01:07.826Z,12.85
2023-02-22T04:03:36.123Z,12.95
2023-02-22T04:06:06.320Z,13.30
2023-02-22T04:08:36.108Z,11.10
2023-02-22T04:11:05.172Z,11.80
2023-02-22T04:13:33.475Z,11.65
2023-02-22T04:16:01.757Z,16.60
2023-02-22T04:18:30.092Z,13.52
2023-02-22T04:20:58.379Z,13.57
2023-02-22T04:23:28.059Z,14.75
2023-02-22T04:25:56.371Z,12.13
2023-02-22T04:28:24.698Z,13.48
2023-02-22T04:30:53.024Z,12.95
2023-02-22T04:33:21.345Z,14.65
2023-02-22T04:35:49.711Z,13.70
2023-02-22T04:38:17.990Z,13.38
2023-02-22T04:40:47.647Z,13.90
2023-02-22T04:43:15.913Z,13.88
2023-02-22T04:45:44.203Z,11.57
2023-02-22T04:48:13.018Z,14.48
2023-02-22T04:50:41.595Z,13.30
2023-02-22T04:53:09.914Z,13.18
2023-02-22T04:55:38.886Z,13.10
2023-02-22T04:58:09.547Z,14.30
2023-02-22T05:00:37.895Z,12.65
2023-02-22T05:03:06.242Z,11.43
2023-02-22T05:05:34.515Z,11.85
2023-02-22T05:08:02.814Z,13.10
2023-02-22T05:10:31.088Z,12.00
2023-02-22T05:12:59.344Z,15.63
2023-02-22T05:15:28.989Z,16.33
2023-02-22T05:17:57.256Z,12.35
2023-02-22T05:20:28.743Z,12.27
2023-02-22T05:22:58.213Z,14.63
2023-02-22T05:25:27.093Z,12.82
2023-02-22T05:27:55.914Z,14.90
2023-02-22T05:30:25.540Z,12.77
2023-02-22T05:32:57.680Z,11.85
2023-02-22T05:35:25.971Z,15.05
2023-02-22T05:37:54.324Z,12.15
2023-02-22T05:40:25.124Z,15.35
2023-02-22T05:42:53.742Z,14.10
2023-02-22T05:45:24.081Z,12.98
2023-02-22T05:47:52.663Z,12.10
2023-02-22T05:50:22.637Z,13.93
2023-02-22T05:52:50.940Z,12.85
2023-02-22T05:55:20.232Z,12.85
2023-02-22T05:57:48.798Z,14.02
2023-02-22T06:00:18.378Z,15.93
2023-02-22T06:02:46.658Z,13.38
2023-02-22T06:05:15.003Z,13.63
2023-02-22T06:07:45.839Z,17.73
2023-02-22T06:10:14.184Z,15.18
2023-02-22T06:12:42.729Z,15.05
2023-02-22T06:15:11.081Z,13.43
2023-02-22T06:17:41.837Z,13.80
2023-02-22T06:20:10.864Z,14.48
2023-02-22T06:22:41.142Z,14.45
2023-02-22T06:25:13.177Z,14.88
2023-02-22T06:27:42.611Z,13.52
2023-02-22T06:30:13.333Z,11.57
2023-02-22T06:32:41.796Z,17.17
2023-02-22T06:35:10.107Z,15.68
2023-02-22T06:37:39.148Z,15.55
2023-02-22T06:40:07.758Z,13.68
2023-02-22T06:42:37.432Z,12.73
2023-02-22T06:45:05.893Z,16.65
2023-02-22T06:47:36.249Z,15.80
2023-02-22T06:50:04.615Z,16.77
2023-02-22T06:52:33.386Z,20.58
2023-02-22T06:55:01.679Z,18.95
2023-02-22T06:57:29.991Z,21.13
2023-02-22T06:59:59.644Z,17.17
2023-02-22T07:02:27.939Z,20.75
2023-02-22T07:04:56.345Z,22.95
2023-02-22T07:07:25.253Z,29.02
2023-02-22T07:09:53.569Z,18.30
2023-02-22T07:12:21.857Z,16.02
2023-02-22T07:14:50.207Z,15.82
2023-02-22T07:17:22.668Z,56.97
2023-02-22T07:19:51.314Z,19.58
2023-02-22T07:22:20.074Z,16.58
2023-02-22T07:24:49.021Z,12.93
2023-02-22T07:27:17.696Z,12.07
2023-02-22T07:29:46.757Z,20.75
2023-02-22T07:32:15.135Z,14.68
2023-02-22T07:34:44.820Z,13.52
2023-02-22T07:37:17.778Z,19.35
2023-02-22T07:39:46.054Z,11.82
2023-02-22T07:42:14.406Z,17.65
2023-02-22T07:44:42.703Z,11.27
2023-02-22T07:47:12.986Z,12.63
2023-02-22T07:49:41.277Z,17.83
2023-02-22T07:52:12.689Z,19.15
2023-02-22T07:54:41.193Z,15.55
2023-02-22T07:57:09.480Z,14.15
2023-02-22T07:59:37.745Z,12.02
2023-02-22T08:02:06.052Z,26.92
2023-02-22T08:04:34.344Z,17.02
2023-02-22T08:07:04.097Z,12.98
2023-02-22T08:09:33.740Z,14.68
2023-02-22T08:12:02.033Z,14.38
2023-02-22T08:14:30.310Z,13.23
2023-02-22T08:16:58.681Z,12.45
2023-02-22T08:19:27.013Z,12.27
2023-02-22T08:21:55.310Z,15.35
2023-02-22T08:24:23.591Z,19.63
2023-02-22T08:26:53.245Z,15.57
2023-02-22T08:29:23.766Z,18.17
2023-02-22T08:31:54.095Z,13.68
2023-02-22T08:34:22.523Z,13.13
2023-02-22T08:36:53.481Z,15.05
2023-02-22T08:39:22.171Z,15.50
2023-02-22T08:41:50.461Z,14.07
2023-02-22T08:44:20.897Z,14.40
2023-02-22T08:46:49.220Z,12.25
2023-02-22T08:49:17.718Z,14.20
2023-02-22T08:51:46.039Z,15.73
2023-02-22T08:54:15.239Z,14.95
2023-02-22T08:56:43.834Z,15.65
2023-02-22T08:59:12.367Z,12.93
2023-02-22T09:01:42.154Z,13.57
2023-02-22T09:04:10.538Z,13.48
2023-02-22T09:06:38.868Z,12.65
2023-02-22T09:09:07.546Z,11.30
2023-02-22T09:11:35.828Z,11.77
2023-02-22T09:14:04.242Z,13.93
2023-02-22T09:16:33.540Z,11.85
2023-02-22T09:19:03.266Z,11.95
2023-02-22T09:21:31.627Z,12.43
2023-02-22T09:24:05.872Z,12.63
2023-02-22T09:26:39.587Z,10.65
2023-02-22T09:29:11.281Z,11.65
2023-02-22T09:31:40.399Z,13.43
2023-02-22T09:34:13.843Z,13.02
2023-02-22T09:36:42.459Z,11.63
2023-02-22T09:39:12.442Z,11.70
2023-02-22T09:41:45.712Z,12.38
2023-02-22T09:44:23.732Z,11.35
2023-02-22T09:46:56.151Z,12.05
2023-02-22T09:49:36.329Z,14.00
2023-02-22T09:52:07.971Z,15.20
2023-02-22T09:54:39.037Z,14.50
2023-02-22T09:57:11.645Z,13.52
2023-02-22T09:59:42.401Z,13.40
2023-02-22T10:02:24.542Z,21.60
2023-02-22T10:05:05.742Z,14.07
2023-02-22T10:07:37.034Z,19.27
2023-02-22T10:10:06.654Z,14.98
2023-02-22T10:12:40.861Z,14.55
2023-02-22T10:15:16.101Z,17.08
2023-02-22T10:17:53.134Z,18.38
2023-02-22T10:20:28.723Z,16.08
2023-02-22T10:23:06.378Z,18.17
2023-02-22T10:25:38.234Z,13.10
2023-02-22T10:28:13.534Z,12.45
2023-02-22T10:30:43.667Z,12.57
2023-02-22T10:33:15.078Z,11.98
2023-02-22T10:35:47.057Z,14.93
2023-02-22T10:38:18.460Z,14.15
2023-02-22T10:40:51.241Z,11.43
2023-02-22T10:43:19.928Z,14.02
2023-02-22T10:45:48.413Z,11.35
2023-02-22T10:48:19.657Z,14.27
2023-02-22T10:50:53.444Z,12.93
2023-02-22T10:56:18.961Z,14.15
2023-02-22T10:58:51.432Z,12.75
2023-02-22T11:01:21.934Z,13.48
2023-02-22T11:03:58.651Z,12.98
2023-02-22T11:06:28.644Z,14.38
2023-02-22T11:09:10.313Z,13.55
2023-02-22T11:11:39.713Z,14.80
2023-02-22T11:14:10.679Z,14.40
2023-02-22T11:16:42.305Z,15.30
2023-02-22T11:19:14.099Z,13.70
2023-02-22T11:21:44.074Z,14.05
2023-02-22T11:24:13.147Z,13.90
2023-02-22T11:26:43.768Z,11.52
2023-02-22T11:29:13.499Z,12.57
2023-02-22T11:31:45.926Z,12.30
2023-02-22T11:34:27.296Z,15.13
2023-02-22T11:36:56.948Z,11.70
2023-02-22T11:39:26.841Z,12.35
2023-02-22T11:41:57.319Z,12.55
2023-02-22T11:44:26.727Z,11.30
2023-02-22T11:46:56.014Z,11.57
2023-02-22T11:49:25.734Z,12.18
2023-02-22T11:52:03.291Z,11.80
2023-02-22T11:54:41.098Z,12.23
2023-02-22T11:57:17.958Z,11.73
2023-02-22T11:59:55.736Z,13.32
2023-02-22T12:02:41.659Z,12.30
2023-02-22T12:05:19.683Z,12.55
2023-02-22T12:07:56.409Z,11.77
2023-02-22T12:10:30.056Z,11.80
2023-02-22T12:13:06.362Z,12.52
2023-02-22T12:15:39.904Z,9.60
2023-02-22T12:18:11.657Z,12.13
2023-02-22T12:20:42.446Z,10.05
2023-02-22T12:23:19.617Z,10.20
2023-02-22T12:25:57.472Z,9.60
2023-02-22T12:28:29.164Z,10.15
2023-02-22T12:31:03.095Z,9.77
2023-02-22T12:33:33.436Z,11.85
2023-02-22T12:36:04.724Z,10.05
2023-02-22T12:38:38.290Z,10.75
2023-02-22T12:41:09.762Z,10.07
2023-02-22T12:43:41.645Z,14.48
2023-02-22T12:46:12.249Z,11.15
2023-02-22T12:48:44.542Z,9.90
2023-02-22T12:51:20.964Z,9.88
2023-02-22T12:53:55.345Z,10.40
2023-02-22T12:56:26.309Z,9.02
2023-02-22T12:58:57.422Z,8.75
2023-02-22T13:01:30.078Z,9.52
2023-02-22T13:04:00.730Z,10.07
2023-02-22T13:06:42.178Z,10.48
2023-02-22T13:09:28.190Z,9.20
2023-02-22T13:12:00.378Z,9.52
2023-02-22T13:14:37.172Z,9.65
2023-02-22T13:17:07.337Z,8.23
2023-02-22T13:19:42.230Z,8.43
2023-02-22T13:22:15.125Z,9.52
2023-02-22T13:24:50.479Z,9.38
2023-02-22T13:27:21.660Z,8.70
2023-02-22T13:29:52.033Z,10.27
2023-02-22T13:32:28.037Z,9.40
2023-02-22T13:35:04.032Z,9.05
2023-02-22T13:37:43.170Z,7.90
2023-02-22T13:40:23.046Z,11.20
2023-02-22T13:42:58.940Z,9.23
2023-02-22T13:45:38.804Z,9.88
2023-02-22T13:48:18.078Z,8.40
2023-02-22T13:51:07.628Z,10.98
2023-02-22T13:53:43.704Z,9.27
2023-02-22T13:56:18.027Z,9.88
2023-02-22T13:58:52.159Z,8.65
2023-02-22T14:01:41.352Z,8.32
2023-02-22T14:04:36.374Z,9.48
2023-02-22T14:07:05.016Z,11.88
2023-02-22T14:09:48.221Z,10.20
2023-02-22T14:12:33.435Z,10.25
2023-02-22T14:15:29.259Z,8.52
2023-02-22T14:18:01.163Z,9.27
2023-02-22T14:20:31.159Z,9.25
2023-02-22T14:23:00.626Z,11.13
2023-02-22T14:25:40.933Z,10.27
2023-02-22T14:28:10.709Z,15.80
2023-02-22T14:30:41.235Z,8.60
2023-02-22T14:33:30.344Z,9.30
2023-02-22T14:35:58.694Z,7.53
2023-02-22T14:38:27.200Z,7.63
2023-02-22T14:40:58.400Z,11.27
2023-02-22T14:43:27.665Z,8.93
2023-02-22T14:46:00.395Z,9.10
2023-02-22T14:48:33.585Z,9.47
2023-02-22T14:51:19.084Z,9.15
2023-02-22T14:53:50.329Z,8.27
2023-02-22T14:56:23.120Z,7.18
2023-02-22T14:58:54.952Z,10.23
2023-02-22T15:01:44.305Z,8.30
2023-02-22T15:04:21.657Z,7.30
2023-02-22T15:06:50.930Z,8.30
2023-02-22T15:09:26.357Z,11.02
2023-02-22T15:11:56.939Z,7.35
2023-02-22T15:14:27.019Z,12.43
2023-02-22T15:16:57.998Z,8.32
2023-02-22T15:19:27.681Z,12.38
2023-02-22T15:21:56.972Z,8.20
2023-02-22T15:24:27.273Z,11.07
2023-02-22T15:27:02.550Z,11.30
2023-02-22T15:29:34.584Z,8.38
2023-02-22T15:32:04.370Z,10.38
2023-02-22T15:34:33.617Z,8.05
2023-02-22T15:37:14.280Z,8.25
2023-02-22T15:39:43.988Z,9.63
2023-02-22T15:42:19.283Z,8.82
2023-02-22T15:44:48.427Z,9.15
2023-02-22T15:47:20.472Z,7.35
2023-02-22T15:50:15.342Z,8.95
2023-02-22T15:52:48.878Z,7.72
2023-02-22T15:55:18.012Z,10.00
2023-02-22T15:57:46.323Z,9.18
2023-02-22T16:00:22.055Z,9.50
2023-02-22T16:02:52.170Z,9.20
2023-02-22T16:05:20.686Z,8.95
2023-02-22T16:07:50.343Z,9.57
2023-02-22T16:10:26.974Z,7.65
2023-02-22T16:13:19.172Z,9.00
2023-02-22T16:15:58.330Z,7.93
2023-02-22T16:18:33.684Z,8.90
2023-02-22T16:21:03.606Z,8.13
2023-02-22T16:23:33.576Z,8.77
2023-02-22T16:26:06.517Z,8.05
2023-02-22T16:28:35.993Z,10.13
2023-02-22T16:31:04.733Z,10.60
2023-02-22T16:33:34.942Z,10.88
2023-02-22T16:36:09.839Z,10.38
2023-02-22T16:38:39.609Z,11.50
2023-02-22T16:41:08.691Z,14.13
2023-02-22T16:43:37.375Z,10.35
2023-02-22T16:46:07.157Z,16.67
2023-02-22T16:48:39.694Z,9.95
2023-02-22T16:51:10.574Z,9.98
2023-02-22T16:53:39.753Z,13.77
2023-02-22T16:56:11.684Z,13.57
2023-02-22T16:58:41.476Z,11.73
2023-02-22T17:01:09.915Z,20.20
2023-02-22T17:03:40.760Z,16.00
2023-02-22T17:06:11.482Z,15.57
2023-02-22T17:08:39.844Z,10.45
2023-02-22T17:11:08.414Z,16.63
2023-02-22T17:13:36.776Z,12.10
2023-02-22T17:16:05.589Z,13.07
2023-02-22T17:18:34.909Z,12.55
2023-02-22T17:21:04.577Z,10.68
2023-02-22T17:23:32.911Z,9.70
2023-02-22T17:26:02.184Z,11.10
2023-02-22T17:28:30.799Z,10.20
2023-02-22T17:31:01.351Z,10.65
2023-02-22T17:33:31.371Z,11.55
2023-02-22T17:36:01.768Z,10.20
2023-02-22T17:38:32.468Z,11.68
2023-02-22T17:41:01.461Z,11.85
2023-02-22T17:43:30.382Z,13.52
2023-02-22T17:45:58.738Z,13.98
2023-02-22T17:48:27.711Z,14.32
2023-02-22T17:50:56.099Z,15.70
2023-02-22T17:53:25.498Z,11.93
2023-02-22T17:55:55.559Z,13.13
2023-02-22T17:58:25.620Z,15.30
2023-02-22T18:00:59.118Z,15.23
2023-02-22T18:03:28.674Z,17.17
2023-02-22T18:05:58.377Z,16.77
2023-02-22T18:08:26.804Z,14.50
2023-02-22T18:11:05.270Z,14.25
2023-02-22T18:13:33.528Z,13.15
2023-02-22T18:16:04.963Z,13.85
2023-02-22T18:18:33.463Z,12.85
2023-02-22T18:21:01.762Z,13.77
2023-02-22T18:23:31.088Z,14.23
2023-02-22T18:26:11.211Z,12.45
2023-02-22T18:28:40.132Z,14.13
2023-02-22T18:31:08.961Z,12.05
2023-02-22T18:33:37.610Z,13.35
2023-02-22T18:36:06.125Z,13.88
2023-02-22T18:38:34.475Z,15.05
2023-02-22T18:41:05.070Z,9.75
2023-02-22T18:43:35.540Z,12.48
2023-02-22T18:46:07.358Z,12.50
2023-02-22T18:48:35.812Z,11.32
2023-02-22T18:51:05.726Z,12.50
2023-02-22T18:53:34.479Z,10.10
2023-02-22T18:56:07.197Z,12.20
2023-02-22T18:58:35.592Z,11.27
2023-02-22T19:01:04.304Z,11.20
2023-02-22T19:03:33.180Z,12.18
2023-02-22T19:06:03.850Z,11.43
2023-02-22T19:08:33.210Z,14.77
2023-02-22T19:11:08.361Z,14.13
2023-02-22T19:13:36.871Z,12.50
2023-02-22T19:16:05.479Z,12.88
2023-02-22T19:18:33.785Z,12.35
2023-02-22T19:21:02.924Z,13.40
2023-02-22T19:23:34.411Z,12.13
2023-02-22T19:26:03.609Z,10.20
2023-02-22T19:28:34.989Z,13.27
2023-02-22T19:31:13.725Z,11.85
2023-02-22T19:33:42.232Z,12.65
2023-02-22T19:36:10.916Z,11.23
2023-02-22T19:38:39.398Z,10.82
2023-02-22T19:41:10.257Z,12.27
2023-02-22T19:43:40.183Z,12.48
2023-02-22T19:46:08.690Z,13.23
2023-02-22T19:48:36.987Z,12.63
2023-02-22T19:51:06.239Z,14.20
2023-02-22T19:53:34.702Z,13.57
2023-02-22T19:56:06.712Z,13.02
2023-02-22T19:58:36.706Z,11.75
2023-02-22T20:01:12.694Z,13.05
2023-02-22T20:03:42.193Z,13.15
2023-02-22T20:06:10.830Z,13.95
2023-02-22T20:08:42.076Z,15.20
2023-02-22T20:11:11.440Z,19.33
2023-02-22T20:13:40.332Z,24.67
2023-02-22T20:16:10.929Z,25.83
2023-02-22T20:18:39.245Z,22.98
2023-02-22T20:21:12.587Z,18.05
2023-02-22T20:23:47.271Z,15.95
2023-02-22T20:26:17.940Z,14.57
2023-02-22T20:28:52.584Z,11.35
2023-02-22T20:31:29.844Z,14.88
2023-02-22T20:33:59.272Z,14.20
2023-02-22T20:36:31.463Z,13.88
2023-02-22T20:39:01.151Z,12.68
2023-02-22T20:41:33.344Z,14.20
2023-02-22T20:44:02.304Z,11.82
2023-02-22T20:46:34.706Z,16.80
2023-02-22T20:49:03.427Z,18.58
2023-02-22T20:51:32.781Z,15.20
2023-02-22T20:54:03.015Z,14.90
2023-02-22T20:56:32.740Z,14.75
2023-02-22T20:59:01.766Z,15.80
2023-02-22T21:01:35.625Z,11.35
2023-02-22T21:04:04.279Z,13.40
2023-02-22T21:06:35.329Z,12.27
2023-02-22T21:09:06.506Z,13.93
2023-02-22T21:11:37.042Z,13.10
2023-02-22T21:14:05.509Z,12.82
2023-02-22T21:16:38.208Z,13.35
2023-02-22T21:19:10.205Z,12.55
2023-02-22T21:21:41.300Z,16.25
2023-02-22T21:24:13.470Z,11.95
2023-02-22T21:26:44.750Z,12.80
2023-02-22T21:29:14.428Z,13.60
2023-02-22T21:31:48.503Z,13.43
2023-02-22T21:34:18.046Z,17.60
2023-02-22T21:36:46.436Z,17.65
2023-02-22T21:39:19.197Z,15.82
2023-02-22T21:41:50.652Z,17.60
2023-02-22T21:44:22.597Z,19.17
2023-02-22T21:46:54.941Z,22.50
2023-02-22T21:49:24.839Z,20.33
2023-02-22T21:51:53.546Z,22.13
2023-02-22T21:54:25.021Z,22.48
2023-02-22T21:56:54.468Z,19.42
2023-02-22T21:59:26.848Z,17.67
2023-02-22T22:01:57.281Z,23.48
2023-02-22T22:04:27.527Z,21.20
2023-02-22T22:06:59.143Z,18.67
2023-02-22T22:09:32.361Z,16.52
2023-02-22T22:12:04.823Z,14.77
2023-02-22T22:14:33.269Z,12.18
2023-02-22T22:17:20.157Z,13.35
2023-02-22T22:19:48.923Z,16.10
2023-02-22T22:22:17.297Z,10.07
2023-02-22T22:24:48.661Z,12.35
2023-02-22T22:30:07.982Z,11.85
2023-02-22T22:32:37.815Z,11.27
2023-02-22T22:35:09.490Z,17.08
2023-02-22T22:37:37.795Z,16.02
2023-02-22T22:40:10.328Z,17.17
2023-02-22T22:42:38.654Z,18.58
2023-02-22T22:45:10.280Z,15.07
2023-02-22T22:47:45.888Z,16.80
2023-02-22T22:50:14.870Z,26.35
2023-02-22T22:52:43.160Z,51.78
2023-02-22T22:55:12.021Z,48.25
2023-02-22T22:57:41.104Z,38.08
2023-02-22T23:00:29.995Z,31.77
2023-02-22T23:03:00.306Z,26.58
2023-02-22T23:05:29.653Z,20.33
2023-02-22T23:08:04.715Z,26.55
2023-02-22T23:10:33.452Z,25.92
2023-02-22T23:13:02.462Z,35.25
2023-02-22T23:15:30.858Z,29.48
2023-02-22T23:18:00.590Z,28.98
2023-02-22T23:20:31.995Z,31.25
2023-02-22T23:23:02.732Z,30.85
2023-02-22T23:25:31.018Z,28.45
2023-02-22T23:27:59.814Z,23.83
2023-02-22T23:30:28.491Z,14.65
2023-02-22T23:32:57.072Z,14.70
2023-02-22T23:35:27.754Z,11.75
2023-02-22T23:37:58.018Z,14.57
2023-02-22T23:40:26.618Z,12.40
2023-02-22T23:42:55.674Z,15.25
2023-02-22T23:45:24.678Z,14.95
2023-02-22T23:47:54.908Z,13.93
2023-02-22T23:50:24.075Z,12.93
2023-02-22T23:53:09.865Z,15.88
2023-02-22T23:55:43.081Z,15.00
2023-02-22T23:58:11.578Z,14.57
